Time;durP1;ratioP1;P1;durP2;ratioP2;P2;SDS_P1;SDS_P2;PMS_P1;PMS_P2;Temp;Humidity;BMP_temperature;BMP_pressure;BME280_temperature;BME280_humidity;BME280_pressure;Samples;Min_cycle;Max_cycle;Signal;HPM_P1;HPM_P2
2022/05/13 00:01:50;;;;;;;11.43;2.90;;;;;;;10.06;72.88;101826.13;4843012;29;20029;-77
2022/05/13 00:04:15;;;;;;;12.30;3.28;;;;;;;9.86;72.85;101791.81;4842841;29;20037;-82
2022/05/13 00:06:41;;;;;;;7.53;2.83;;;;;;;10.01;73.10;101822.06;4843026;29;20068;-77
2022/05/13 00:09:06;;;;;;;9.25;2.85;;;;;;;9.97;73.39;101821.38;4842846;29;20029;-79
2022/05/13 00:11:32;;;;;;;12.45;3.33;;;;;;;9.93;73.76;101832.75;4842747;29;20066;-81
2022/05/13 00:13:57;;;;;;;10.40;3.33;;;;;;;9.90;73.85;101825.13;4843016;29;20033;-83
2022/05/13 00:16:22;;;;;;;9.20;3.80;;;;;;;9.88;73.99;101819.19;4842851;29;20053;-77
2022/05/13 00:18:48;;;;;;;12.95;3.72;;;;;;;9.86;74.30;101822.75;4826470;29;20387;-78
2022/05/13 00:21:14;;;;;;;10.07;2.90;;;;;;;9.78;74.68;101821.34;4842688;29;20490;-88
2022/05/13 00:23:39;;;;;;;11.43;3.30;;;;;;;9.77;74.87;101814.50;4842979;29;20062;-89
2022/05/13 00:26:05;;;;;;;11.13;3.42;;;;;;;9.58;75.07;101793.00;4843056;29;20382;-89
2022/05/13 00:28:31;;;;;;;11.48;3.80;;;;;;;9.41;75.29;101780.84;4842849;29;20498;-89
2022/05/13 00:30:59;;;;;;;13.52;3.63;;;;;;;9.55;75.81;101806.03;4842947;29;20121;-89
2022/05/13 00:33:24;;;;;;;11.68;3.53;;;;;;;9.45;76.00;101797.88;4842569;29;20033;-88
2022/05/13 00:35:50;;;;;;;10.82;3.90;;;;;;;9.63;76.05;101827.16;4842674;29;20034;-89
2022/05/13 00:38:15;;;;;;;10.18;3.45;;;;;;;9.44;76.41;101795.34;4842656;29;20022;-89
2022/05/13 00:40:41;;;;;;;10.20;3.83;;;;;;;9.55;76.45;101816.34;4842322;29;20388;-89
2022/05/13 00:43:12;;;;;;;12.02;3.45;;;;;;;9.35;76.41;101799.16;4842332;29;20398;-85
2022/05/13 00:45:38;;;;;;;12.02;4.07;;;;;;;9.20;76.48;101771.44;4842321;29;20025;-89
2022/05/13 00:48:05;;;;;;;10.52;3.95;;;;;;;9.46;76.67;101824.47;4842445;29;20555;-88
2022/05/13 00:50:33;;;;;;;10.98;3.92;;;;;;;9.46;76.57;101822.75;4842062;29;20154;-88
2022/05/13 00:53:00;;;;;;;9.07;3.42;;;;;;;9.47;76.49;101821.84;4842179;29;20109;-89
2022/05/13 00:55:34;;;;;;;11.30;4.28;;;;;;;9.29;76.35;101790.84;4841817;29;20034;-89
2022/05/13 00:58:02;;;;;;;11.93;3.97;;;;;;;9.36;76.42;101800.81;4842023;29;20034;-85
2022/05/13 01:00:28;;;;;;;8.30;3.53;;;;;;;9.39;76.48;101815.31;4825740;29;20530;-89
2022/05/13 01:02:55;;;;;;;8.50;3.63;;;;;;;9.38;76.53;101829.94;4842431;29;20038;-89
2022/05/13 01:05:21;;;;;;;8.85;3.65;;;;;;;9.40;76.39;101815.25;4826394;29;20486;-87
2022/05/13 01:07:46;;;;;;;11.60;4.65;;;;;;;9.39;76.49;101811.00;4842201;29;20037;-87
2022/05/13 01:10:18;;;;;;;13.75;3.53;;;;;;;9.38;76.63;101811.06;4841472;29;20033;-87
2022/05/13 01:12:50;;;;;;;14.50;3.70;;;;;;;9.26;76.62;101796.97;4841951;29;20037;-87
2022/05/13 01:15:25;;;;;;;13.45;4.53;;;;;;;9.29;77.10;101804.56;4841929;29;20498;-84
2022/05/13 01:18:07;;;;;;;12.68;3.97;;;;;;;9.28;77.23;101807.22;4841981;29;20507;-86
2022/05/13 01:20:46;;;;;;;10.27;3.95;;;;;;;9.26;77.35;101809.00;4842227;29;20034;-90
2022/05/13 01:23:17;;;;;;;11.18;4.15;;;;;;;9.14;77.71;101800.03;4843215;29;20049;-89
2022/05/13 01:25:46;;;;;;;9.32;4.15;;;;;;;9.03;78.00;101784.19;4843851;29;20037;-89
2022/05/13 01:28:50;;;;;;;11.77;5.13;;;;;;;9.20;77.98;101805.78;4842488;29;20065;-85
2022/05/13 01:31:24;;;;;;;11.80;4.60;;;;;;;9.11;78.94;101798.44;4767587;30;20047;-88
2022/05/13 01:33:49;;;;;;;9.82;4.07;;;;;;;8.98;79.06;101786.97;4767675;30;20042;-88
2022/05/13 01:36:15;;;;;;;12.30;4.70;;;;;;;9.06;79.24;101799.53;4767443;30;20051;-87
2022/05/13 01:38:41;;;;;;;13.38;4.50;;;;;;;8.80;79.22;101760.22;4752459;30;20032;-83
2022/05/13 01:41:08;;;;;;;11.65;4.43;;;;;;;9.11;79.17;101807.91;4767326;30;20517;-85
2022/05/13 01:43:34;;;;;;;11.20;4.20;;;;;;;9.10;79.24;101809.63;4767529;30;20036;-87
2022/05/13 01:45:59;;;;;;;12.68;4.63;;;;;;;9.22;78.94;101815.19;4767593;30;20027;-85
2022/05/13 01:48:26;;;;;;;14.00;4.68;;;;;;;9.34;78.33;101823.25;4767408;30;20040;-81
2022/05/13 01:50:52;;;;;;;13.57;4.20;;;;;;;9.47;77.46;101819.25;4767226;30;20498;-87
2022/05/13 01:53:17;;;;;;;11.68;3.78;;;;;;;9.57;77.22;101819.69;4767390;30;20039;-85
2022/05/13 01:55:43;;;;;;;9.10;3.55;;;;;;;9.44;76.51;101785.03;4766997;30;20201;-89
2022/05/13 01:58:13;;;;;;;9.20;3.58;;;;;;;9.44;75.73;101780.72;4767197;30;20507;-88
2022/05/13 02:00:39;;;;;;;11.40;4.60;;;;;;;9.49;75.55;101785.66;4767177;30;20050;-88
2022/05/13 02:05:49;;;;;;;9.75;3.63;;;;;;;9.54;75.55;101794.06;4767424;30;20412;-89
2022/05/13 02:08:15;;;;;;;9.23;3.45;;;;;;;9.46;75.96;101786.66;4816845;29;20041;-88
2022/05/13 02:10:41;;;;;;;13.75;4.15;;;;;;;9.52;76.12;101805.31;4841374;29;20406;-87
2022/05/13 02:13:07;;;;;;;12.23;4.30;;;;;;;9.44;76.15;101800.50;4841310;29;20029;-81
2022/05/13 02:15:32;;;;;;;14.75;4.20;;;;;;;9.16;76.15;101759.59;4841586;29;20030;-90
2022/05/13 02:17:58;;;;;;;14.30;3.92;;;;;;;9.42;76.08;101810.03;4841341;29;20505;-88
2022/05/13 02:20:23;;;;;;;10.32;4.15;;;;;;;9.35;76.28;101806.06;4841298;29;20034;-89
2022/05/13 02:22:48;;;;;;;10.00;3.58;;;;;;;9.31;76.60;101799.34;4842997;29;20117;-87
2022/05/13 02:25:14;;;;;;;11.55;3.63;;;;;;;9.29;76.31;101804.56;4844524;29;20129;-85
2022/05/13 02:27:39;;;;;;;12.63;3.67;;;;;;;9.31;76.52;101807.91;4844814;29;20030;-89
2022/05/13 02:30:05;;;;;;;13.60;4.22;;;;;;;9.32;76.64;101801.00;4844856;29;20050;-88
2022/05/13 02:32:30;;;;;;;12.45;4.80;;;;;;;9.11;76.82;101764.94;4844572;29;20033;-88
2022/05/13 02:34:56;;;;;;;12.07;3.95;;;;;;;9.44;76.76;101810.81;4844573;29;20474;-88
2022/05/13 02:37:21;;;;;;;12.50;4.25;;;;;;;9.49;76.60;101804.56;4844406;29;20030;-87
2022/05/13 02:39:47;;;;;;;12.57;4.15;;;;;;;9.55;76.94;101805.22;4844272;29;20061;-77
2022/05/13 02:42:12;;;;;;;9.75;4.03;;;;;;;9.56;76.67;101805.13;4844383;29;20390;-87
2022/05/13 02:44:37;;;;;;;15.20;4.43;;;;;;;9.34;76.77;101763.97;4827847;29;20042;-76
2022/05/13 02:47:03;;;;;;;14.40;4.65;;;;;;;9.52;76.41;101787.25;4844222;29;20049;-89
2022/05/13 02:49:28;;;;;;;16.60;4.57;;;;;;;9.63;76.43;101797.94;4844348;29;20038;-81
2022/05/13 02:51:54;;;;;;;11.57;4.30;;;;;;;9.64;76.70;101803.06;4844350;29;20034;-88
2022/05/13 02:54:19;;;;;;;14.20;4.38;;;;;;;9.58;76.95;101787.84;4844129;29;20471;-88
2022/05/13 02:56:45;;;;;;;14.07;4.85;;;;;;;9.64;77.27;101797.91;4844178;29;20387;-83
2022/05/13 02:59:10;;;;;;;14.30;5.28;;;;;;;9.61;77.49;101797.19;4844079;29;20455;-87
2022/05/13 03:01:37;;;;;;;13.25;4.57;;;;;;;9.67;77.76;101802.94;4843930;29;20085;-88
2022/05/13 03:04:02;;;;;;;11.30;4.53;;;;;;;9.66;77.57;101790.94;4844255;29;20081;-85
2022/05/13 03:06:27;;;;;;;14.10;5.13;;;;;;;9.52;77.67;101767.47;4844057;29;20029;-84
2022/05/13 03:08:53;;;;;;;15.18;5.75;;;;;;;9.74;77.87;101804.34;4843939;29;20042;-88
2022/05/13 03:11:23;;;;;;;16.08;6.28;;;;;;;9.67;77.86;101792.59;4843497;29;20026;-88
2022/05/13 03:13:51;;;;;;;14.93;4.70;;;;;;;9.45;78.17;101764.34;4843852;29;20022;-88
2022/05/13 03:16:19;;;;;;;14.55;5.55;;;;;;;9.72;78.06;101788.06;4843864;29;20471;-87
2022/05/13 03:18:52;;;;;;;14.07;5.63;;;;;;;9.84;77.72;101791.88;4843822;29;20037;-87
2022/05/13 03:21:18;;;;;;;13.80;5.03;;;;;;;9.83;77.94;101787.59;4843693;29;20101;-88
2022/05/13 03:23:43;;;;;;;16.45;5.85;;;;;;;9.68;77.77;101762.50;4843752;29;20102;-80
2022/05/13 03:26:10;;;;;;;14.30;4.88;;;;;;;9.64;78.17;101751.50;4827063;29;20492;-85
2022/05/13 03:28:36;;;;;;;12.10;4.57;;;;;;;9.80;78.06;101785.16;4843766;29;20041;-77
2022/05/13 03:31:02;;;;;;;15.63;4.63;;;;;;;9.70;78.16;101777.00;4843581;29;20494;-88
2022/05/13 03:33:28;;;;;;;14.30;5.35;;;;;;;9.68;78.47;101794.28;4842644;29;20045;-87
2022/05/13 03:35:53;;;;;;;14.60;5.40;;;;;;;9.49;78.73;101760.72;4843644;29;20026;-87
2022/05/13 03:38:18;;;;;;;12.18;4.93;;;;;;;9.30;79.08;101744.38;4843576;29;20026;-91
2022/05/13 03:40:46;;;;;;;15.38;5.35;;;;;;;9.55;79.54;101789.72;4843329;29;20032;-83
2022/05/13 03:43:11;;;;;;;13.77;5.45;;;;;;;9.46;79.82;101796.97;4843692;29;20101;-83
2022/05/13 03:45:37;;;;;;;12.85;4.57;;;;;;;9.27;80.44;101775.44;4843715;29;20038;-82
2022/05/13 03:48:05;;;;;;;10.48;4.65;;;;;;;9.19;80.81;101768.03;4843488;29;20475;-81
2022/05/13 03:50:32;;;;;;;17.33;5.47;;;;;;;9.29;81.41;101794.25;4843371;29;20065;-88
2022/05/13 03:52:59;;;;;;;15.32;5.35;;;;;;;9.08;81.41;101764.22;4843316;29;20034;-82
2022/05/13 03:55:25;;;;;;;17.23;5.50;;;;;;;9.05;81.93;101766.94;4826939;29;20037;-77
2022/05/13 03:57:50;;;;;;;15.68;5.30;;;;;;;9.19;82.21;101796.38;4842863;29;20051;-83
2022/05/13 04:00:16;;;;;;;18.30;6.13;;;;;;;9.21;82.54;101798.88;4842828;29;20052;-82
2022/05/13 04:02:41;;;;;;;13.20;5.40;;;;;;;9.20;82.63;101799.78;4825766;29;20125;-77
2022/05/13 04:10:38;;;;;;;15.85;6.22;;;;;;;9.13;83.26;101786.31;4843126;29;20137;-79
2022/05/13 04:18:36;;;;;;;16.23;6.07;;;;;;;9.10;83.32;101770.97;4842621;29;20504;-88
2022/05/13 04:21:04;;;;;;;19.45;7.28;;;;;;;9.26;83.67;101791.81;4842596;29;20030;-90
2022/05/13 04:23:34;;;;;;;19.05;6.72;;;;;;;9.29;83.84;101796.81;4826905;29;20041;-78
2022/05/13 04:25:59;;;;;;;20.67;8.38;;;;;;;9.30;83.92;101792.50;4842457;29;20390;-80
2022/05/13 04:28:25;;;;;;;19.85;6.63;;;;;;;9.12;83.98;101764.03;4842696;29;20026;-77
2022/05/13 04:30:51;;;;;;;20.98;6.97;;;;;;;9.35;83.94;101796.56;4842604;29;20505;-88
2022/05/13 04:33:16;;;;;;;15.95;6.65;;;;;;;9.25;83.90;101782.41;4842785;29;20065;-78
2022/05/13 04:35:42;;;;;;;19.42;6.78;;;;;;;9.44;83.87;101808.25;4841929;29;20046;-80
2022/05/13 04:38:08;;;;;;;19.38;6.82;;;;;;;9.52;83.54;101802.72;4842360;29;20048;-81
2022/05/13 04:40:33;;;;;;;15.70;6.93;;;;;;;9.39;83.11;101771.50;4842225;29;20489;-78
2022/05/13 04:43:00;;;;;;;17.15;7.28;;;;;;;9.64;82.83;101815.97;4842313;29;20042;-78
2022/05/13 04:45:28;;;;;;;18.50;6.82;;;;;;;9.77;82.88;101830.00;4842111;29;20055;-84
2022/05/13 04:50:58;;;;;;;14.90;6.53;;;;;;;10.25;81.33;101831.34;4842644;29;20037;-85
2022/05/13 04:53:26;;;;;;;19.20;7.43;;;;;;;10.51;80.26;101834.44;4840856;29;20041;-77
2022/05/13 04:55:53;;;;;;;20.15;6.50;;;;;;;10.63;79.33;101820.97;4842116;29;20032;-87
2022/05/13 04:58:19;;;;;;;17.35;6.60;;;;;;;10.72;78.60;101835.22;4841945;29;20078;-88
2022/05/13 05:00:46;;;;;;;19.48;6.53;;;;;;;10.62;78.82;101819.31;4825806;29;20034;-79
2022/05/13 05:03:12;;;;;;;17.45;6.47;;;;;;;10.77;78.40;101843.56;4842155;29;20090;-77
2022/05/13 05:05:38;;;;;;;21.85;6.72;;;;;;;10.82;78.13;101833.84;4842345;29;20029;-77
2022/05/13 05:08:03;;;;;;;21.20;6.50;;;;;;;10.82;78.51;101836.44;4841471;29;20032;-87
2022/05/13 05:10:29;;;;;;;16.00;6.80;;;;;;;10.60;78.35;101819.34;4841999;29;20439;-89
2022/05/13 05:12:56;;;;;;;18.95;7.22;;;;;;;10.79;78.77;101847.72;4841879;29;20075;-86
2022/05/13 05:15:23;;;;;;;16.33;5.85;;;;;;;10.73;78.48;101816.22;4841615;29;20034;-78
2022/05/13 05:17:49;;;;;;;17.95;6.50;;;;;;;10.88;78.50;101839.53;4841506;29;20113;-77
2022/05/13 05:20:15;;;;;;;20.75;6.80;;;;;;;10.72;78.37;101824.88;4841894;29;20113;-77
2022/05/13 05:22:41;;;;;;;18.27;6.40;;;;;;;10.98;78.21;101847.69;4842010;29;20390;-81
2022/05/13 05:25:07;;;;;;;18.17;6.75;;;;;;;10.97;78.09;101838.28;4841962;29;20412;-78
2022/05/13 05:27:35;;;;;;;18.98;6.82;;;;;;;11.11;77.81;101858.25;4841624;29;20022;-87
2022/05/13 05:30:03;;;;;;;16.70;6.72;;;;;;;11.07;77.70;101862.75;4841709;29;20030;-78
2022/05/13 05:32:28;;;;;;;17.33;6.97;;;;;;;11.08;77.97;101866.19;4841996;29;20494;-78
2022/05/13 05:34:53;;;;;;;19.08;7.03;;;;;;;11.09;77.66;101839.41;4825428;29;20062;-79
2022/05/13 05:37:19;;;;;;;17.60;6.90;;;;;;;11.41;76.42;101867.13;4842032;29;20030;-79
2022/05/13 05:39:44;;;;;;;18.98;6.30;;;;;;;11.57;75.79;101869.75;4842064;29;20101;-77
2022/05/13 05:42:09;;;;;;;20.40;7.05;;;;;;;11.70;75.51;101882.91;4841782;29;20457;-80
2022/05/13 05:44:35;;;;;;;20.13;7.30;;;;;;;11.65;75.27;101887.50;4841814;29;20038;-82
2022/05/13 05:47:00;;;;;;;22.80;7.28;;;;;;;11.66;75.40;101894.34;4841881;29;20035;-81
2022/05/13 05:49:26;;;;;;;15.40;6.50;;;;;;;11.67;75.64;101896.00;4851808;29;20076;-80
2022/05/13 05:51:51;;;;;;;19.90;7.05;;;;;;;11.59;75.79;101880.03;4860805;29;20165;-79
2022/05/13 05:57:15;;;;;;;17.27;6.85;;;;;;;11.98;75.22;101897.88;4861040;29;20048;-78
2022/05/13 05:59:44;;;;;;;19.30;7.40;;;;;;;12.01;74.83;101887.41;4863474;29;20486;-80
2022/05/13 06:02:11;;;;;;;16.80;6.68;;;;;;;12.31;74.17;101903.91;4863677;29;20439;-81
2022/05/13 06:04:37;;;;;;;22.55;6.88;;;;;;;12.44;73.20;101900.66;4863813;29;20029;-82
2022/05/13 06:07:08;;;;;;;15.68;6.63;;;;;;;12.65;73.27;101912.44;4847138;29;20074;-78
2022/05/13 06:09:33;;;;;;;20.77;6.68;;;;;;;12.79;72.67;101890.97;4863772;29;20033;-79
2022/05/13 06:11:59;;;;;;;14.50;6.18;;;;;;;12.90;71.63;101904.19;4846687;29;20462;-80
2022/05/13 06:14:26;;;;;;;19.98;6.72;;;;;;;12.64;70.73;101852.00;4863493;29;20518;-81
2022/05/13 06:16:51;;;;;;;16.58;6.63;;;;;;;13.11;70.91;101922.88;4863411;29;20537;-85
2022/05/13 06:19:16;;;;;;;21.42;7.03;;;;;;;13.13;70.20;101901.13;4863390;29;20109;-81
2022/05/13 06:21:45;;;;;;;20.42;6.90;;;;;;;13.26;70.13;101927.22;4863434;29;20026;-86
2022/05/13 06:24:11;;;;;;;20.50;7.03;;;;;;;13.12;70.60;101899.47;4863332;29;20072;-82
2022/05/13 06:26:42;;;;;;;20.92;7.75;;;;;;;12.78;70.93;101851.28;4863240;29;20061;-82
2022/05/13 06:29:07;;;;;;;;;;;;;;;13.37;70.54;101930.06;4863578;29;20034;-84
2022/05/13 06:31:34;;;;;;;18.63;7.32;;;;;;;13.14;70.97;101882.03;4846529;29;19916;-84
2022/05/13 06:34:00;;;;;;;16.40;7.35;;;;;;;13.56;70.33;101927.22;4863229;29;20029;-82
2022/05/13 06:36:26;;;;;;;16.60;7.90;;;;;;;13.68;69.56;101933.50;4863188;29;20121;-82
2022/05/13 06:38:51;;;;;;;18.85;8.95;;;;;;;13.59;69.77;101929.66;4863206;29;20041;-75
2022/05/13 06:41:17;;;;;;;18.27;8.55;;;;;;;13.49;70.05;101928.53;4862983;29;20033;-75
2022/05/13 06:43:42;;;;;;;21.40;8.80;;;;;;;13.48;70.43;101935.47;4862792;29;20398;-74
2022/05/13 06:46:08;;;;;;;20.67;8.73;;;;;;;13.80;69.94;101924.97;4862994;29;20033;-75
2022/05/13 06:48:33;;;;;;;18.90;8.50;;;;;;;14.50;68.38;101933.72;4862884;29;20090;-74
2022/05/13 06:51:00;;;;;;;20.90;8.20;;;;;;;14.96;65.24;101933.47;4862895;29;20025;-73
2022/05/13 06:53:25;;;;;;;19.10;7.90;;;;;;;14.93;65.05;101925.81;4862955;29;20022;-78
2022/05/13 06:55:51;;;;;;;17.05;8.43;;;;;;;14.92;64.81;101896.38;4845978;29;20434;-74
2022/05/13 06:58:17;;;;;;;20.35;8.63;;;;;;;15.47;63.42;101924.03;4845659;29;20048;-73
2022/05/13 07:00:44;;;;;;;19.13;7.90;;;;;;;15.80;62.83;101934.94;4862522;29;20026;-73
2022/05/13 07:03:14;;;;;;;16.27;8.13;;;;;;;15.69;62.08;101936.47;4845880;29;20048;-74
2022/05/13 07:05:39;;;;;;;16.83;7.82;;;;;;;15.57;62.53;101933.84;4862862;29;20100;-74
2022/05/13 07:08:05;;;;;;;19.77;8.73;;;;;;;15.59;63.28;101940.59;4845452;29;20461;-71
2022/05/13 07:10:31;;;;;;;16.27;7.47;;;;;;;15.67;63.02;101937.53;4862569;29;20032;-74
2022/05/13 07:12:56;;;;;;;16.52;8.00;;;;;;;15.64;62.32;101937.75;4862037;29;20029;-74
2022/05/13 07:15:21;;;;;;;16.90;7.38;;;;;;;16.14;61.52;101936.91;4862377;29;20029;-75
2022/05/13 07:17:47;;;;;;;19.42;7.50;;;;;;;17.00;58.24;101925.66;4862583;29;20026;-76
2022/05/13 07:20:14;;;;;;;15.52;6.93;;;;;;;17.65;56.42;101920.78;4862284;29;20037;-75
2022/05/13 07:22:40;;;;;;;14.07;7.10;;;;;;;17.69;54.97;101917.00;4862531;29;20034;-75
2022/05/13 07:25:07;;;;;;;16.13;6.93;;;;;;;17.49;55.22;101915.03;4845737;29;20398;-74
2022/05/13 07:27:32;;;;;;;19.73;7.75;;;;;;;16.99;56.95;101906.56;4861748;29;20040;-74
2022/05/13 07:29:58;;;;;;;15.60;7.43;;;;;;;16.90;57.79;101926.31;4862121;29;20116;-74
2022/05/13 07:32:23;;;;;;;13.75;6.90;;;;;;;16.79;57.82;101939.31;4845090;29;20407;-75
2022/05/13 07:34:48;;;;;;;21.42;7.38;;;;;;;16.45;58.33;101929.56;4861869;29;20522;-74
2022/05/13 07:37:14;;;;;;;13.18;6.82;;;;;;;16.44;59.37;101935.72;4861114;29;20025;-74
2022/05/13 07:42:23;;;;;;;13.98;6.75;;;;;;;16.38;58.26;101938.75;4861575;29;20406;-75
2022/05/13 07:44:49;;;;;;;13.32;6.70;;;;;;;16.18;58.84;101951.41;4861884;29;20029;-76
2022/05/13 07:47:17;;;;;;;12.05;6.68;;;;;;;16.04;59.57;101920.25;4861723;29;20442;-76
2022/05/13 07:49:44;;;;;;;18.00;6.97;;;;;;;16.50;60.61;101949.16;4861823;29;20116;-76
2022/05/13 07:52:10;;;;;;;14.98;7.03;;;;;;;16.58;58.24;101959.06;4861931;29;20454;-73
2022/05/13 07:54:36;;;;;;;14.95;6.13;;;;;;;16.42;58.13;101958.44;4845065;29;20112;-75
2022/05/13 07:57:02;;;;;;;14.75;5.95;;;;;;;16.03;59.34;101945.47;4861787;29;20037;-75
2022/05/13 07:59:31;;;;;;;12.85;5.85;;;;;;;15.82;60.58;101943.47;4861227;29;20053;-74
2022/05/13 08:01:56;;;;;;;18.55;6.45;;;;;;;15.39;61.26;101926.28;4861468;29;20039;-74
2022/05/13 08:04:21;;;;;;;16.00;6.53;;;;;;;15.17;62.33;101952.06;4861388;29;20434;-73
2022/05/13 08:06:47;;;;;;;14.70;6.00;;;;;;;14.93;63.46;101963.06;4860564;29;20036;-74
2022/05/13 08:09:12;;;;;;;14.45;6.45;;;;;;;14.66;64.00;101945.78;4845005;29;20026;-76
2022/05/13 08:11:38;;;;;;;14.88;6.78;;;;;;;14.54;64.56;101971.59;4861384;29;20462;-76
2022/05/13 08:14:03;;;;;;;18.08;6.65;;;;;;;14.42;65.34;101958.50;4861343;29;20112;-75
2022/05/13 08:16:29;;;;;;;16.92;7.18;;;;;;;14.42;65.44;101961.09;4861282;29;20092;-77
2022/05/13 08:18:57;;;;;;;14.15;6.05;;;;;;;14.44;64.08;101956.63;4861259;29;20492;-75
2022/05/13 08:21:23;;;;;;;14.02;5.57;;;;;;;14.69;64.55;101974.19;4860868;29;20034;-75
2022/05/13 08:23:49;;;;;;;12.77;5.63;;;;;;;14.96;63.90;101971.66;4861181;29;20038;-76
2022/05/13 08:26:14;;;;;;;15.63;6.10;;;;;;;15.08;63.17;101968.25;4861070;29;20036;-76
2022/05/13 08:28:41;;;;;;;15.32;5.47;;;;;;;15.13;62.70;101977.41;4860952;29;20385;-77
2022/05/13 08:31:07;;;;;;;11.73;5.75;;;;;;;15.27;62.40;101970.50;4860853;29;20125;-76
2022/05/13 08:33:33;;;;;;;11.73;5.18;;;;;;;15.40;61.53;101951.38;4860932;29;20041;-75
2022/05/13 08:36:02;;;;;;;15.38;5.20;;;;;;;15.76;61.39;101970.78;4860923;29;20049;-76
2022/05/13 08:38:31;;;;;;;14.13;5.88;;;;;;;16.00;59.50;101978.69;4860965;29;20033;-75
2022/05/13 08:41:28;;;;;;;14.50;5.45;;;;;;;16.17;59.66;101972.34;4860930;29;20124;-74
2022/05/13 08:43:58;;;;;;;12.82;5.32;;;;;;;15.64;59.45;101954.19;4853302;29;20037;-76
2022/05/13 08:46:39;;;;;;;11.32;5.10;;;;;;;15.48;60.50;101967.34;4860868;29;20033;-77
2022/05/13 08:49:10;;;;;;;14.45;5.63;;;;;;;15.32;61.03;101987.50;4860868;29;20034;-78
2022/05/13 08:51:48;;;;;;;14.73;5.13;;;;;;;15.30;62.55;101985.91;4844143;29;20535;-78
2022/05/13 08:54:22;;;;;;;12.07;4.53;;;;;;;15.00;61.82;101967.91;4860856;29;20033;-77
2022/05/13 08:56:55;;;;;;;12.50;4.60;;;;;;;14.89;61.23;101998.03;4860690;29;20030;-76
2022/05/13 08:59:23;;;;;;;10.85;4.47;;;;;;;14.68;61.78;101988.97;4860458;29;20443;-76
2022/05/13 09:02:14;;;;;;;12.30;4.78;;;;;;;14.87;62.23;101999.06;4860391;29;20037;-76
2022/05/13 09:05:02;;;;;;;12.27;4.47;;;;;;;15.11;61.56;101992.31;4860004;29;20049;-76
2022/05/13 09:07:28;;;;;;;12.18;4.53;;;;;;;15.45;60.42;101990.16;4843928;29;20397;-77
2022/05/13 09:09:58;;;;;;;14.38;4.38;;;;;;;15.84;58.41;101991.09;4860510;29;20106;-77
2022/05/13 09:12:37;;;;;;;11.38;3.95;;;;;;;16.12;58.18;101984.84;4860586;29;20499;-77
2022/05/13 09:15:12;;;;;;;10.88;4.00;;;;;;;16.47;56.60;101985.03;4860358;29;20026;-80
2022/05/13 09:17:50;;;;;;;13.07;4.13;;;;;;;16.44;55.23;101987.88;4860526;29;20033;-79
2022/05/13 09:20:20;;;;;;;11.70;4.45;;;;;;;16.73;57.49;101991.09;4860361;29;20022;-78
2022/05/13 09:22:52;;;;;;;12.73;4.07;;;;;;;16.79;55.03;101990.66;4860474;29;20379;-80
2022/05/13 09:25:36;;;;;;;10.48;4.10;;;;;;;16.69;55.53;101994.84;4860231;29;20029;-78
2022/05/13 09:28:11;;;;;;;12.25;4.00;;;;;;;16.72;55.51;101985.03;4860305;29;20029;-78
2022/05/13 09:30:48;;;;;;;15.02;4.63;;;;;;;16.85;54.75;102004.09;4860184;29;20525;-78
2022/05/13 09:33:24;;;;;;;9.77;3.88;;;;;;;16.72;56.02;101976.38;4863016;29;20619;-76
2022/05/13 09:35:58;;;;;;;9.45;3.60;;;;;;;16.84;52.67;101988.56;4864014;29;20078;-78
2022/05/13 09:38:32;;;;;;;10.00;3.70;;;;;;;16.98;51.89;101982.34;4864286;29;20033;-78
2022/05/13 09:41:01;;;;;;;11.05;3.58;;;;;;;17.26;50.50;102008.13;4864097;29;20359;-77
2022/05/13 09:43:34;;;;;;;9.32;3.22;;;;;;;17.44;51.38;102006.78;4848576;29;20030;-75
2022/05/13 09:46:27;;;;;;;7.45;2.42;;;;;;;17.39;49.90;102005.44;4845291;29;20030;-78
2022/05/13 09:48:56;;;;;;;7.25;2.92;;;;;;;17.74;49.99;102015.97;4771000;30;20498;-77
2022/05/13 09:51:32;;;;;;;8.90;3.35;;;;;;;17.82;48.76;102005.78;4771073;30;20040;-78
2022/05/13 09:54:26;;;;;;;9.73;2.90;;;;;;;17.84;48.18;102009.09;4771191;30;20488;-78
2022/05/13 09:57:08;;;;;;;5.57;2.28;;;;;;;17.78;47.45;101986.88;4755977;30;20118;-78
2022/05/13 09:59:52;;;;;;;9.27;2.28;;;;;;;18.10;46.03;102001.91;4770692;30;20417;-78
2022/05/13 10:02:24;;;;;;;7.85;2.10;;;;;;;18.06;44.21;101993.44;4770713;30;20039;-79
2022/05/13 10:04:53;;;;;;;9.20;2.10;;;;;;;18.38;45.44;101989.31;4770697;30;20036;-78
2022/05/13 10:07:20;;;;;;;7.00;2.13;;;;;;;18.65;44.59;102000.28;4770092;30;20036;-77
2022/05/13 10:15:37;;;;;;;9.48;2.50;;;;;;;18.48;44.85;101990.25;4770647;30;20513;-77
2022/05/13 10:18:24;;;;;;;7.60;2.45;;;;;;;18.21;44.98;101996.69;4770633;30;20136;-78
2022/05/13 10:20:55;;;;;;;9.57;2.38;;;;;;;18.11;46.59;102002.75;4770585;30;20048;-76
2022/05/13 10:23:38;;;;;;;7.57;2.08;;;;;;;18.24;46.90;101999.06;4770473;30;20051;-77
2022/05/13 10:26:11;;;;;;;10.18;2.60;;;;;;;17.92;45.97;101982.41;4810219;29;20045;-77
2022/05/13 10:28:58;;;;;;;9.50;3.10;;;;;;;17.74;46.49;101998.50;4844736;29;20034;-78
2022/05/13 10:31:28;;;;;;;8.13;2.25;;;;;;;17.54;47.86;101998.28;4844453;29;20041;-78
2022/05/13 10:34:01;;;;;;;6.47;2.38;;;;;;;17.52;47.40;101982.72;4828250;29;20042;-77
2022/05/13 10:36:40;;;;;;;7.45;2.30;;;;;;;17.93;47.11;101984.88;4844587;29;20034;-77
2022/05/13 10:39:28;;;;;;;6.88;2.42;;;;;;;18.08;46.54;102000.34;4844586;29;20125;-78
2022/05/13 10:42:06;;;;;;;8.10;2.78;;;;;;;18.01;46.35;101984.31;4844546;29;20045;-77
2022/05/13 10:44:40;;;;;;;6.38;2.20;;;;;;;17.94;45.30;101996.19;4843883;29;20046;-77
2022/05/13 10:47:15;;;;;;;7.60;2.20;;;;;;;17.91;45.90;102009.47;4844335;29;20534;-76
2022/05/13 10:49:43;;;;;;;7.82;2.20;;;;;;;18.05;45.03;101996.19;4844501;29;20467;-77
2022/05/13 10:52:33;;;;;;;7.03;2.03;;;;;;;18.46;44.68;102003.47;4844433;29;20030;-77
2022/05/13 10:55:17;;;;;;;5.80;2.20;;;;;;;18.78;44.75;102006.22;4834402;29;20049;-78
2022/05/13 10:58:06;;;;;;;7.18;2.42;;;;;;;18.74;44.63;101983.84;4844292;29;20053;-78
2022/05/13 11:00:48;;;;;;;8.05;2.40;;;;;;;18.88;44.94;102014.19;4824436;29;20058;-79
2022/05/13 11:03:22;;;;;;;8.27;2.78;;;;;;;18.79;44.85;102009.69;4825939;29;20034;-76
2022/05/13 11:05:59;;;;;;;8.68;2.90;;;;;;;18.73;44.20;102007.53;4825760;29;20491;-79
2022/05/13 11:08:40;;;;;;;8.88;2.65;;;;;;;18.89;45.08;101990.50;4826004;29;20041;-79
2022/05/13 11:11:40;;;;;;;6.35;1.70;;;;;;;18.93;43.31;102004.16;4825771;29;20499;-78
2022/05/13 11:14:12;;;;;;;6.33;1.70;;;;;;;18.78;42.05;102008.84;4769456;30;20071;-79
2022/05/13 11:16:37;;;;;;;;;;;;;;;19.05;42.69;102007.59;4769695;30;20663;-75
2022/05/13 11:19:19;;;;;;;4.13;1.50;;;;;;;19.02;41.71;102000.00;4769494;30;19920;-76
2022/05/13 11:22:04;;;;;;;5.78;1.65;;;;;;;19.26;42.48;102003.25;4769954;30;20321;-76
2022/05/13 11:27:38;;;;;;;8.75;1.83;;;;;;;19.45;41.93;102006.03;4769671;30;20050;-76
2022/05/13 11:30:10;;;;;;;;;;;;;;;19.48;42.15;102005.78;4770061;30;20050;-76
2022/05/13 11:33:16;;;;;;;6.53;1.35;;;;;;;19.06;41.28;101999.59;4769333;30;20399;-76
2022/05/13 11:36:02;;;;;;;6.70;1.65;;;;;;;19.00;43.63;102005.34;4760111;30;20416;-77
2022/05/13 11:38:30;;;;;;;6.18;1.80;;;;;;;18.90;43.13;102002.63;4769279;30;20047;-75
2022/05/13 11:41:08;;;;;;;6.28;2.08;;;;;;;18.70;42.77;101995.53;4769030;30;20039;-77
2022/05/13 11:44:06;;;;;;;8.07;1.75;;;;;;;18.84;42.59;101991.81;4769019;30;20078;-76
2022/05/13 11:47:00;;;;;;;7.10;2.00;;;;;;;18.81;43.19;101992.06;4716260;30;20083;-75
2022/05/13 11:49:32;;;;;;;7.00;1.58;;;;;;;18.67;44.78;101995.75;4664505;30;20057;-75
2022/05/13 11:52:46;;;;;;;6.78;2.25;;;;;;;18.75;44.37;101989.91;4723526;30;20056;-77
2022/05/13 11:55:13;;;;;;;4.85;1.77;;;;;;;19.03;42.02;102005.09;4718037;30;20075;-77
2022/05/13 11:57:47;;;;;;;5.70;1.52;;;;;;;19.22;41.35;101999.22;4733500;30;20036;-76
2022/05/13 12:00:30;;;;;;;5.88;1.80;;;;;;;19.31;42.62;102005.50;4733360;30;20068;-78
2022/05/13 12:03:15;;;;;;;7.68;2.00;;;;;;;19.52;42.43;102003.75;4733343;30;20190;-77
2022/05/13 12:05:46;;;;;;;8.10;1.60;;;;;;;19.42;43.34;102003.66;4733285;30;20029;-75